Time;durP1;ratioP1;P1;durP2;ratioP2;P2;SDS_P1;SDS_P2;PMS_P1;PMS_P2;Temp;Humidity;BMP_temperature;BMP_pressure;BME280_temperature;BME280_humidity;BME280_pressure;Samples;Min_cycle;Max_cycle;Signal;HPM_P1;HPM_P2
2023/08/22 00:00:37;;;;;;;5.95;5.03;;;;;;;;;;4930069;29;20501;-69
2023/08/22 00:03:05;;;;;;;4.95;4.60;;;;;;;;;;4933409;28;20554;-69
2023/08/22 00:05:33;;;;;;;7.25;5.25;;;;;;;;;;4910487;29;20453;-69
2023/08/22 00:08:05;;;;;;;5.20;4.75;;;;;;;;;;4940577;29;20047;-70
2023/08/22 00:10:33;;;;;;;5.30;4.85;;;;;;;;;;4931103;29;20519;-70
2023/08/22 00:13:02;;;;;;;5.35;4.57;;;;;;;;;;4943936;23;20338;-71
2023/08/22 00:15:30;;;;;;;6.07;5.20;;;;;;;;;;4909175;29;20054;-71
2023/08/22 00:17:58;;;;;;;5.78;5.10;;;;;;;;;;4911450;29;20055;-71
2023/08/22 00:20:26;;;;;;;6.18;5.18;;;;;;;;;;4910715;29;20052;-71
2023/08/22 00:22:53;;;;;;;5.43;4.90;;;;;;;;;;4906561;29;20047;-71
2023/08/22 00:25:21;;;;;;;8.52;5.30;;;;;;;;;;4910545;29;20513;-71
2023/08/22 00:27:48;;;;;;;5.78;5.18;;;;;;;;;;4910828;29;20506;-71
2023/08/22 00:30:17;;;;;;;5.50;5.10;;;;;;;;;;4911479;29;20048;-71
2023/08/22 00:32:44;;;;;;;6.88;5.47;;;;;;;;;;4911358;29;20048;-71
2023/08/22 00:35:12;;;;;;;8.20;5.03;;;;;;;;;;4912246;29;20048;-71
2023/08/22 00:37:40;;;;;;;5.20;4.90;;;;;;;;;;4909196;29;20450;-71
2023/08/22 00:40:08;;;;;;;6.18;5.45;;;;;;;;;;4894114;29;20082;-71
2023/08/22 00:42:35;;;;;;;6.15;5.13;;;;;;;;;;4909650;29;20131;-71
2023/08/22 00:45:03;;;;;;;7.25;5.55;;;;;;;;;;4897587;29;20047;-71
2023/08/22 00:47:31;;;;;;;6.57;5.55;;;;;;;;;;4910609;29;20051;-71
2023/08/22 00:50:00;;;;;;;9.00;5.03;;;;;;;;;;4910976;29;20126;-71
2023/08/22 00:52:27;;;;;;;7.68;5.78;;;;;;;;;;4908631;29;20064;-71
2023/08/22 00:54:55;;;;;;;8.80;5.57;;;;;;;;;;4908718;29;20051;-71
2023/08/22 00:57:22;;;;;;;6.38;5.63;;;;;;;;;;4895495;29;20059;-71
2023/08/22 00:59:50;;;;;;;6.30;5.55;;;;;;;;;;4925687;29;20874;-71
2023/08/22 01:02:18;;;;;;;5.53;5.13;;;;;;;;;;4909477;29;20047;-71
2023/08/22 01:04:46;;;;;;;5.75;5.20;;;;;;;;;;4909360;29;20080;-71
2023/08/22 01:07:37;;;;;;;7.18;5.47;;;;;;;;;;4910866;29;20055;-71
2023/08/22 01:10:08;;;;;;;6.32;4.88;;;;;;;;;;4886172;29;20585;-71
2023/08/22 01:12:44;;;;;;;5.60;5.03;;;;;;;;;;4908703;29;20051;-71
2023/08/22 01:15:12;;;;;;;7.00;5.30;;;;;;;;;;4909039;29;20442;-70
2023/08/22 01:17:40;;;;;;;6.75;6.05;;;;;;;;;;4910050;29;20144;-71
2023/08/22 01:20:12;;;;;;;6.38;5.20;;;;;;;;;;4927485;29;20047;-70
2023/08/22 01:22:40;;;;;;;5.93;5.32;;;;;;;;;;4906960;29;20059;-70
2023/08/22 01:25:08;;;;;;;5.90;5.40;;;;;;;;;;4908740;29;20048;-70
2023/08/22 01:27:39;;;;;;;5.57;5.07;;;;;;;;;;4908987;29;20411;-71
2023/08/22 01:30:11;;;;;;;5.35;5.00;;;;;;;;;;4895097;29;20056;-71
2023/08/22 01:32:41;;;;;;;5.78;5.28;;;;;;;;;;4909683;29;20044;-71
2023/08/22 01:35:10;;;;;;;5.15;4.75;;;;;;;;;;4911074;29;20050;-71
2023/08/22 01:37:38;;;;;;;6.63;4.85;;;;;;;;;;4895071;29;20350;-71
2023/08/22 01:40:07;;;;;;;5.18;4.78;;;;;;;;;;4910382;29;20060;-71
2023/08/22 01:42:35;;;;;;;6.97;5.20;;;;;;;;;;4925236;29;20091;-72
2023/08/22 01:45:02;;;;;;;5.32;4.88;;;;;;;;;;4909605;29;20043;-71
2023/08/22 01:47:30;;;;;;;6.90;5.07;;;;;;;;;;4907394;29;20063;-71
2023/08/22 01:49:58;;;;;;;5.15;4.75;;;;;;;;;;4909627;29;20047;-71
2023/08/22 01:52:26;;;;;;;5.68;5.15;;;;;;;;;;4924271;29;20047;-71
2023/08/22 01:54:53;;;;;;;7.78;5.22;;;;;;;;;;4910415;29;20078;-71
2023/08/22 01:57:21;;;;;;;5.63;5.13;;;;;;;;;;4909644;29;20107;-71
2023/08/22 01:59:49;;;;;;;10.05;5.18;;;;;;;;;;4908831;29;20095;-71
2023/08/22 02:02:16;;;;;;;5.78;5.28;;;;;;;;;;4894170;29;20051;-71
2023/08/22 02:04:44;;;;;;;6.38;5.88;;;;;;;;;;4892092;29;20056;-71
2023/08/22 02:07:11;;;;;;;6.10;5.50;;;;;;;;;;4908566;29;20039;-71
2023/08/22 02:09:39;;;;;;;6.40;5.57;;;;;;;;;;4907580;29;20051;-71
2023/08/22 02:12:07;;;;;;;5.70;5.15;;;;;;;;;;4908151;29;20138;-71
2023/08/22 02:14:34;;;;;;;5.97;5.43;;;;;;;;;;4907641;29;20170;-72
2023/08/22 02:17:02;;;;;;;5.95;5.35;;;;;;;;;;4911869;29;20524;-71
2023/08/22 02:19:30;;;;;;;6.30;5.32;;;;;;;;;;4902889;29;20044;-71
2023/08/22 02:21:57;;;;;;;5.70;5.20;;;;;;;;;;4909159;29;20055;-71
2023/08/22 02:24:25;;;;;;;5.80;5.30;;;;;;;;;;4905329;29;20047;-71
2023/08/22 02:26:52;;;;;;;5.60;4.93;;;;;;;;;;4905985;29;20099;-71
2023/08/22 02:29:20;;;;;;;6.65;5.55;;;;;;;;;;4908514;29;20221;-71
2023/08/22 02:31:47;;;;;;;6.38;5.32;;;;;;;;;;4891017;29;20048;-71
2023/08/22 02:34:15;;;;;;;7.00;5.28;;;;;;;;;;4924826;29;20425;-71
2023/08/22 02:36:42;;;;;;;7.00;4.75;;;;;;;;;;4905842;29;20086;-71
2023/08/22 02:39:10;;;;;;;5.68;5.20;;;;;;;;;;4909106;29;20490;-71
2023/08/22 02:41:38;;;;;;;5.80;5.30;;;;;;;;;;4907554;29;20518;-71
2023/08/22 02:44:06;;;;;;;5.50;4.90;;;;;;;;;;4892847;29;20046;-71
2023/08/22 02:46:34;;;;;;;5.78;5.28;;;;;;;;;;4922912;29;20171;-71
2023/08/22 02:49:02;;;;;;;6.50;5.38;;;;;;;;;;4888576;29;20047;-71
2023/08/22 02:51:31;;;;;;;5.75;5.25;;;;;;;;;;4908919;29;20048;-71
2023/08/22 02:53:59;;;;;;;6.03;5.50;;;;;;;;;;4904052;29;20106;-71
2023/08/22 02:56:27;;;;;;;6.15;5.50;;;;;;;;;;4909509;29;20451;-71
2023/08/22 02:58:55;;;;;;;5.50;4.97;;;;;;;;;;4890021;29;20056;-71
2023/08/22 03:01:23;;;;;;;5.60;4.90;;;;;;;;;;4907217;29;20461;-71
2023/08/22 03:03:53;;;;;;;5.45;4.95;;;;;;;;;;4906418;29;20078;-71
2023/08/22 03:06:22;;;;;;;5.72;5.30;;;;;;;;;;4906587;29;20036;-71
2023/08/22 03:08:50;;;;;;;5.55;5.03;;;;;;;;;;4905033;29;20682;-71
2023/08/22 03:11:17;;;;;;;5.70;5.10;;;;;;;;;;4888656;29;20044;-71
2023/08/22 03:13:45;;;;;;;5.82;5.32;;;;;;;;;;4906188;29;20051;-71
2023/08/22 03:16:13;;;;;;;7.82;5.18;;;;;;;;;;4908093;29;20515;-71
2023/08/22 03:18:44;;;;;;;7.75;5.40;;;;;;;;;;4910765;29;20107;-71
2023/08/22 03:21:12;;;;;;;5.63;5.13;;;;;;;;;;4910851;29;20662;-71
2023/08/22 03:23:40;;;;;;;9.50;5.43;;;;;;;;;;4889031;29;20558;-71
2023/08/22 03:26:13;;;;;;;5.97;5.03;;;;;;;;;;4910964;29;20051;-71
2023/08/22 03:28:42;;;;;;;5.88;5.35;;;;;;;;;;4911019;29;20094;-71
2023/08/22 03:31:10;;;;;;;6.28;5.68;;;;;;;;;;4909216;29;20138;-71
2023/08/22 03:33:38;;;;;;;6.18;5.57;;;;;;;;;;4912731;29;20258;-71
2023/08/22 03:36:08;;;;;;;6.28;5.35;;;;;;;;;;4910969;29;20433;-71
2023/08/22 03:38:36;;;;;;;6.60;5.72;;;;;;;;;;4896842;29;20099;-71
2023/08/22 03:41:04;;;;;;;6.88;5.93;;;;;;;;;;4911586;29;20526;-71
2023/08/22 03:43:31;;;;;;;8.02;5.80;;;;;;;;;;4878258;29;20135;-71
2023/08/22 03:46:01;;;;;;;6.60;5.18;;;;;;;;;;4913617;29;20048;-71
2023/08/22 03:48:29;;;;;;;5.95;5.50;;;;;;;;;;4906698;29;20047;-71
2023/08/22 03:50:56;;;;;;;6.25;5.75;;;;;;;;;;4902589;29;20597;-71
2023/08/22 03:53:24;;;;;;;5.97;5.57;;;;;;;;;;4910166;29;20103;-71
2023/08/22 03:55:52;;;;;;;5.95;5.45;;;;;;;;;;4893391;29;20052;-71
2023/08/22 03:58:19;;;;;;;6.22;5.68;;;;;;;;;;4897337;29;20048;-71
2023/08/22 04:00:47;;;;;;;6.03;5.45;;;;;;;;;;4909683;29;20343;-71
2023/08/22 04:03:15;;;;;;;7.47;5.60;;;;;;;;;;4912412;29;20074;-71
2023/08/22 04:05:42;;;;;;;6.40;5.90;;;;;;;;;;4912745;29;20446;-71
2023/08/22 04:08:10;;;;;;;6.75;6.13;;;;;;;;;;4894798;29;20087;-71
2023/08/22 04:10:38;;;;;;;7.32;6.20;;;;;;;;;;4905606;29;20058;-71
2023/08/22 04:13:06;;;;;;;6.80;6.03;;;;;;;;;;4917923;29;20043;-71
2023/08/22 04:15:35;;;;;;;7.30;5.53;;;;;;;;;;4915909;29;20099;-71
2023/08/22 04:18:03;;;;;;;6.75;6.15;;;;;;;;;;4918532;29;20067;-71
2023/08/22 04:20:31;;;;;;;6.72;6.13;;;;;;;;;;4910550;29;20052;-71
2023/08/22 04:22:59;;;;;;;7.75;5.75;;;;;;;;;;4923500;29;20047;-71
2023/08/22 04:25:27;;;;;;;6.35;5.82;;;;;;;;;;4913959;29;20126;-71
2023/08/22 04:27:55;;;;;;;6.88;6.28;;;;;;;;;;4909676;29;20490;-71
2023/08/22 04:30:23;;;;;;;9.18;6.10;;;;;;;;;;4908981;29;20142;-71
2023/08/22 04:32:51;;;;;;;8.52;6.35;;;;;;;;;;4911228;29;20126;-71
2023/08/22 04:35:19;;;;;;;8.05;6.47;;;;;;;;;;4910708;29;20046;-71
2023/08/22 04:37:49;;;;;;;6.47;5.88;;;;;;;;;;4911500;29;20514;-71
2023/08/22 04:40:17;;;;;;;6.90;6.30;;;;;;;;;;4907180;29;20050;-70
2023/08/22 04:43:04;;;;;;;6.43;5.88;;;;;;;;;;4915604;29;20172;-71
2023/08/22 04:45:33;;;;;;;7.20;6.60;;;;;;;;;;4902521;29;20056;-71
2023/08/22 04:48:01;;;;;;;7.47;6.63;;;;;;;;;;4916657;29;20135;-71
2023/08/22 04:50:31;;;;;;;10.18;6.75;;;;;;;;;;4909341;29;20418;-71
2023/08/22 04:52:59;;;;;;;6.70;6.20;;;;;;;;;;4892237;29;20048;-71
2023/08/22 04:55:27;;;;;;;8.75;6.60;;;;;;;;;;4913265;29;20734;-71
2023/08/22 04:57:54;;;;;;;7.63;6.72;;;;;;;;;;4909669;29;20059;-71
2023/08/22 05:00:22;;;;;;;8.23;6.80;;;;;;;;;;4902721;29;20511;-71
2023/08/22 05:02:50;;;;;;;10.25;6.57;;;;;;;;;;4907186;29;20269;-71
2023/08/22 05:05:18;;;;;;;7.28;6.57;;;;;;;;;;4910659;29;20414;-71
2023/08/22 05:07:46;;;;;;;7.95;6.43;;;;;;;;;;4905741;29;20443;-71
2023/08/22 05:10:14;;;;;;;7.53;6.88;;;;;;;;;;4907657;29;20146;-71
2023/08/22 05:12:41;;;;;;;7.38;6.68;;;;;;;;;;4891044;29;20048;-71
2023/08/22 05:15:10;;;;;;;7.25;6.65;;;;;;;;;;4908838;29;20051;-71
2023/08/22 05:17:38;;;;;;;6.22;5.70;;;;;;;;;;4906746;29;20447;-72
2023/08/22 05:20:12;;;;;;;6.38;5.63;;;;;;;;;;4907699;29;20127;-71
2023/08/22 05:22:41;;;;;;;9.10;6.07;;;;;;;;;;4910365;29;20048;-71
2023/08/22 05:25:09;;;;;;;7.20;5.90;;;;;;;;;;4907701;29;20099;-71
2023/08/22 05:27:38;;;;;;;6.47;5.90;;;;;;;;;;4901012;29;20578;-71
2023/08/22 05:30:06;;;;;;;6.18;5.68;;;;;;;;;;4892762;29;20043;-69
2023/08/22 05:32:34;;;;;;;5.60;5.20;;;;;;;;;;4904446;29;20055;-68
2023/08/22 05:35:02;;;;;;;6.35;5.80;;;;;;;;;;4915732;29;20048;-68
2023/08/22 05:37:30;;;;;;;6.82;6.10;;;;;;;;;;4913136;29;20094;-68
2023/08/22 05:39:58;;;;;;;6.40;5.90;;;;;;;;;;4937683;29;20158;-68
2023/08/22 05:42:26;;;;;;;7.32;6.45;;;;;;;;;;4905910;29;20058;-69
2023/08/22 05:44:55;;;;;;;7.25;6.53;;;;;;;;;;4902046;29;20054;-70
2023/08/22 05:47:23;;;;;;;9.93;6.57;;;;;;;;;;4891849;29;20138;-69
2023/08/22 05:49:51;;;;;;;8.25;7.45;;;;;;;;;;4908293;29;20556;-69
2023/08/22 05:52:19;;;;;;;8.73;7.82;;;;;;;;;;4883146;29;20596;-69
2023/08/22 05:54:46;;;;;;;8.48;7.78;;;;;;;;;;4889179;29;20134;-70
2023/08/22 05:57:15;;;;;;;8.82;7.93;;;;;;;;;;4921860;29;20055;-71
2023/08/22 05:59:43;;;;;;;8.43;7.63;;;;;;;;;;4911609;29;20079;-69
2023/08/22 06:02:10;;;;;;;8.63;7.80;;;;;;;;;;4908281;29;20490;-69
2023/08/22 06:04:38;;;;;;;7.68;7.05;;;;;;;;;;4910031;29;20055;-72
2023/08/22 06:07:06;;;;;;;7.60;7.00;;;;;;;;;;4924893;29;20040;-71
2023/08/22 06:09:34;;;;;;;6.97;6.28;;;;;;;;;;4894555;29;20054;-71
2023/08/22 06:12:02;;;;;;;7.85;7.05;;;;;;;;;;4905513;29;20078;-71
2023/08/22 06:14:30;;;;;;;6.88;5.63;;;;;;;;;;4905084;29;20051;-71
2023/08/22 06:17:00;;;;;;;5.60;5.18;;;;;;;;;;4909547;29;20393;-71
2023/08/22 06:19:28;;;;;;;6.20;5.70;;;;;;;;;;4908861;29;20056;-71
2023/08/22 06:21:56;;;;;;;6.57;5.93;;;;;;;;;;4909412;29;20470;-71
2023/08/22 06:24:23;;;;;;;5.90;5.07;;;;;;;;;;4892643;29;20712;-75
2023/08/22 06:26:52;;;;;;;8.15;5.55;;;;;;;;;;4910131;29;20051;-71
2023/08/22 06:29:20;;;;;;;5.50;5.10;;;;;;;;;;4907728;29;20058;-71
2023/08/22 06:31:47;;;;;;;6.07;5.47;;;;;;;;;;4923301;29;20557;-73
2023/08/22 06:34:15;;;;;;;5.65;5.25;;;;;;;;;;4923673;29;20574;-73
2023/08/22 06:36:42;;;;;;;6.15;5.18;;;;;;;;;;4908506;29;20048;-73
2023/08/22 06:39:11;;;;;;;5.95;5.45;;;;;;;;;;4906140;29;20055;-73
2023/08/22 06:41:39;;;;;;;6.97;5.30;;;;;;;;;;4912447;29;20051;-72
2023/08/22 06:44:11;;;;;;;6.85;5.20;;;;;;;;;;4889360;29;20051;-73
2023/08/22 06:46:38;;;;;;;5.85;5.30;;;;;;;;;;4909960;29;20106;-73
2023/08/22 06:49:06;;;;;;;5.88;5.15;;;;;;;;;;4903170;29;20047;-73
2023/08/22 06:51:33;;;;;;;7.80;5.55;;;;;;;;;;4906439;29;20044;-73
2023/08/22 06:54:01;;;;;;;5.93;5.43;;;;;;;;;;4911857;29;20071;-72
2023/08/22 06:56:29;;;;;;;6.10;5.60;;;;;;;;;;4924421;29;20055;-73
2023/08/22 06:58:56;;;;;;;6.32;5.72;;;;;;;;;;4928399;29;20100;-73
2023/08/22 07:01:24;;;;;;;6.43;5.82;;;;;;;;;;4922203;29;20044;-73
2023/08/22 07:03:51;;;;;;;6.90;6.30;;;;;;;;;;4911897;29;20052;-72
2023/08/22 07:06:37;;;;;;;8.02;5.22;;;;;;;;;;4925338;29;20055;-73
2023/08/22 07:09:04;;;;;;;6.32;5.72;;;;;;;;;;4929637;29;20058;-73
2023/08/22 07:11:32;;;;;;;9.10;5.90;;;;;;;;;;4912580;29;20136;-72
2023/08/22 07:14:00;;;;;;;6.38;5.88;;;;;;;;;;4925403;29;20074;-73
2023/08/22 07:16:27;;;;;;;7.60;6.88;;;;;;;;;;4902484;29;20059;-72
2023/08/22 07:18:55;;;;;;;7.78;7.18;;;;;;;;;;4919724;29;20130;-72
2023/08/22 07:21:23;;;;;;;6.82;6.32;;;;;;;;;;4928564;29;20423;-73
2023/08/22 07:23:50;;;;;;;7.88;6.57;;;;;;;;;;4916197;29;20087;-72
2023/08/22 07:26:18;;;;;;;7.75;7.05;;;;;;;;;;4904683;29;20506;-72
2023/08/22 07:28:45;;;;;;;8.60;7.30;;;;;;;;;;4905442;29;20128;-72
2023/08/22 07:31:13;;;;;;;7.68;7.00;;;;;;;;;;4927933;29;20052;-72
2023/08/22 07:33:41;;;;;;;9.48;6.85;;;;;;;;;;4908690;29;20056;-72
2023/08/22 07:36:16;;;;;;;8.65;6.57;;;;;;;;;;4911914;29;20075;-72
2023/08/22 07:38:44;;;;;;;6.57;6.00;;;;;;;;;;4911706;29;20395;-72
2023/08/22 07:41:12;;;;;;;7.70;6.15;;;;;;;;;;4914826;29;20106;-72
2023/08/22 07:43:40;;;;;;;6.32;5.82;;;;;;;;;;4905823;29;20052;-72
2023/08/22 07:46:08;;;;;;;6.25;5.60;;;;;;;;;;4913257;29;20517;-72
2023/08/22 07:48:35;;;;;;;6.20;5.50;;;;;;;;;;4916464;29;20494;-72
2023/08/22 07:51:03;;;;;;;6.18;5.57;;;;;;;;;;4929305;29;20851;-72
2023/08/22 07:53:32;;;;;;;6.85;5.97;;;;;;;;;;4890125;29;20048;-72
2023/08/22 07:55:59;;;;;;;7.35;5.50;;;;;;;;;;4929030;29;20110;-72
2023/08/22 07:58:27;;;;;;;6.95;6.30;;;;;;;;;;4924495;29;20043;-72
2023/08/22 08:00:54;;;;;;;6.40;5.80;;;;;;;;;;4910893;29;20079;-72
2023/08/22 08:03:22;;;;;;;8.07;5.40;;;;;;;;;;4905521;29;20055;-72
2023/08/22 08:05:50;;;;;;;6.50;5.43;;;;;;;;;;4915085;29;20055;-72
2023/08/22 08:08:17;;;;;;;6.45;5.93;;;;;;;;;;4912935;29;20143;-72
2023/08/22 08:10:45;;;;;;;6.93;6.10;;;;;;;;;;4922544;29;20222;-72
2023/08/22 08:13:13;;;;;;;6.47;5.90;;;;;;;;;;4903981;29;20055;-72
2023/08/22 08:15:41;;;;;;;7.15;6.40;;;;;;;;;;4919721;29;20080;-72
2023/08/22 08:18:10;;;;;;;6.45;5.65;;;;;;;;;;4936979;29;20535;-72
2023/08/22 08:20:37;;;;;;;5.90;5.35;;;;;;;;;;4921054;29;20086;-72
2023/08/22 08:23:05;;;;;;;6.47;5.38;;;;;;;;;;4928799;29;20064;-72
2023/08/22 08:25:33;;;;;;;8.02;6.00;;;;;;;;;;4920499;29;20055;-72
2023/08/22 08:28:00;;;;;;;6.35;5.60;;;;;;;;;;4931606;29;20067;-72
2023/08/22 08:30:28;;;;;;;5.90;5.47;;;;;;;;;;4920751;29;20063;-72
2023/08/22 08:32:56;;;;;;;5.85;5.35;;;;;;;;;;4918950;29;20074;-72
2023/08/22 08:35:23;;;;;;;5.90;5.40;;;;;;;;;;4913610;29;20055;-73
2023/08/22 08:37:52;;;;;;;5.65;5.15;;;;;;;;;;4928289;29;20059;-72
2023/08/22 08:40:20;;;;;;;6.22;5.30;;;;;;;;;;4918090;29;20048;-72
2023/08/22 08:42:48;;;;;;;5.47;5.07;;;;;;;;;;4927986;29;20055;-72
2023/08/22 08:45:16;;;;;;;5.38;4.65;;;;;;;;;;4918019;29;20048;-73
2023/08/22 08:47:44;;;;;;;5.63;5.10;;;;;;;;;;4930434;29;20079;-72
2023/08/22 08:50:12;;;;;;;5.93;5.40;;;;;;;;;;4930006;29;20048;-73
2023/08/22 08:52:45;;;;;;;5.22;4.82;;;;;;;;;;4921229;29;20438;-73
2023/08/22 08:55:12;;;;;;;7.53;4.82;;;;;;;;;;4929641;29;20122;-72
2023/08/22 08:57:40;;;;;;;5.47;4.97;;;;;;;;;;4914006;29;20139;-73
2023/08/22 09:00:09;;;;;;;6.82;4.80;;;;;;;;;;4923797;29;20052;-73
2023/08/22 09:02:36;;;;;;;5.10;4.80;;;;;;;;;;4929184;29;20106;-72
2023/08/22 09:05:04;;;;;;;5.45;5.00;;;;;;;;;;4929216;29;20510;-73
2023/08/22 09:07:32;;;;;;;5.15;4.75;;;;;;;;;;4927838;29;20071;-73
2023/08/22 09:10:02;;;;;;;6.03;4.82;;;;;;;;;;4912287;29;20513;-73
2023/08/22 09:12:33;;;;;;;5.17;4.73;;;;;;;;;;4930154;29;20055;-73
2023/08/22 09:15:02;;;;;;;5.28;4.88;;;;;;;;;;4929125;29;20403;-72
2023/08/22 09:17:30;;;;;;;5.95;4.80;;;;;;;;;;4920518;29;20055;-73
2023/08/22 09:19:58;;;;;;;6.78;4.75;;;;;;;;;;4927911;29;20048;-73
2023/08/22 09:22:32;;;;;;;5.30;4.78;;;;;;;;;;4928945;29;20052;-72
2023/08/22 09:25:00;;;;;;;6.10;4.47;;;;;;;;;;4929878;29;20052;-73
2023/08/22 09:27:28;;;;;;;5.40;5.03;;;;;;;;;;4927094;29;20475;-73
2023/08/22 09:30:04;;;;;;;4.93;4.53;;;;;;;;;;4929817;29;20059;-73
2023/08/22 09:32:33;;;;;;;4.80;4.40;;;;;;;;;;4920928;29;20059;-73
2023/08/22 09:35:02;;;;;;;4.65;4.32;;;;;;;;;;4912693;29;20055;-73
2023/08/22 09:37:36;;;;;;;9.45;4.90;;;;;;;;;;4927358;29;20474;-72
2023/08/22 09:40:09;;;;;;;6.15;5.10;;;;;;;;;;4923671;29;20155;-73
2023/08/22 09:42:41;;;;;;;4.78;4.35;;;;;;;;;;4919177;29;20383;-73
2023/08/22 09:45:10;;;;;;;5.25;4.55;;;;;;;;;;4915785;29;20055;-73
2023/08/22 09:47:42;;;;;;;4.80;4.50;;;;;;;;;;4920485;29;20059;-73
2023/08/22 09:50:11;;;;;;;4.70;4.30;;;;;;;;;;4928878;29;20363;-73
2023/08/22 09:52:40;;;;;;;4.50;4.10;;;;;;;;;;4905323;29;20134;-73
2023/08/22 09:55:07;;;;;;;4.80;4.47;;;;;;;;;;4927997;29;20498;-73
2023/08/22 09:57:36;;;;;;;5.90;4.70;;;;;;;;;;4919577;29;20106;-73
2023/08/22 10:00:05;;;;;;;7.05;3.97;;;;;;;;;;4928627;29;20062;-73
2023/08/22 10:02:40;;;;;;;4.85;4.25;;;;;;;;;;4920805;29;20176;-73
2023/08/22 10:05:11;;;;;;;4.38;3.97;;;;;;;;;;4904397;29;20123;-73
2023/08/22 10:07:39;;;;;;;4.57;4.18;;;;;;;;;;4928966;29;20066;-73
2023/08/22 10:10:07;;;;;;;4.78;4.30;;;;;;;;;;4928444;29;20142;-72
2023/08/22 10:12:36;;;;;;;4.45;3.88;;;;;;;;;;4926649;29;20083;-71
2023/08/22 10:15:06;;;;;;;4.63;4.00;;;;;;;;;;4925294;29;20056;-71
2023/08/22 10:17:34;;;;;;;3.75;3.38;;;;;;;;;;4926476;29;20147;-72
2023/08/22 10:20:05;;;;;;;4.90;3.92;;;;;;;;;;4913565;29;20055;-72
2023/08/22 10:22:33;;;;;;;4.55;3.70;;;;;;;;;;4920089;29;20521;-72
2023/08/22 10:25:04;;;;;;;4.40;4.00;;;;;;;;;;4926937;29;20048;-72
2023/08/22 10:27:32;;;;;;;4.63;4.20;;;;;;;;;;4912467;29;20394;-72
2023/08/22 10:30:12;;;;;;;6.05;4.20;;;;;;;;;;4920023;29;20051;-72
2023/08/22 10:32:40;;;;;;;5.05;3.60;;;;;;;;;;4929235;29;20056;-73
2023/08/22 10:35:14;;;;;;;4.45;3.95;;;;;;;;;;4928194;29;20418;-73
2023/08/22 10:37:47;;;;;;;5.53;4.38;;;;;;;;;;4919814;29;20056;-72
2023/08/22 10:40:31;;;;;;;4.40;4.00;;;;;;;;;;4919802;29;20043;-71
2023/08/22 10:43:05;;;;;;;6.43;3.80;;;;;;;;;;4914206;29;20054;-72
2023/08/22 10:45:38;;;;;;;4.00;3.70;;;;;;;;;;4929448;29;20044;-72
2023/08/22 10:48:10;;;;;;;5.45;4.03;;;;;;;;;;4928875;29;20051;-72
2023/08/22 10:50:42;;;;;;;8.77;3.97;;;;;;;;;;4928806;29;20051;-72
2023/08/22 10:53:18;;;;;;;4.45;3.97;;;;;;;;;;4929300;29;20521;-72
2023/08/22 10:55:46;;;;;;;7.72;4.30;;;;;;;;;;4922048;29;20410;-72
2023/08/22 10:58:32;;;;;;;5.05;3.97;;;;;;;;;;4927792;29;20068;-73
2023/08/22 11:01:00;;;;;;;4.15;3.85;;;;;;;;;;4923246;29;20062;-72
2023/08/22 11:03:28;;;;;;;4.15;3.85;;;;;;;;;;4919669;29;20055;-73
2023/08/22 11:05:56;;;;;;;4.57;3.85;;;;;;;;;;4913165;29;20499;-72
2023/08/22 11:08:23;;;;;;;4.43;3.30;;;;;;;;;;4928678;29;20134;-72
2023/08/22 11:10:53;;;;;;;3.85;3.55;;;;;;;;;;4919547;29;20058;-72
2023/08/22 11:13:21;;;;;;;5.55;3.90;;;;;;;;;;4916307;29;20047;-72
2023/08/22 11:15:50;;;;;;;4.57;3.50;;;;;;;;;;4928207;29;20058;-73
2023/08/22 11:18:18;;;;;;;4.28;3.40;;;;;;;;;;4916355;29;20513;-73
2023/08/22 11:20:52;;;;;;;3.67;3.38;;;;;;;;;;4922392;29;20044;-73
2023/08/22 11:23:20;;;;;;;3.92;3.17;;;;;;;;;;4928472;29;20395;-73
2023/08/22 11:25:47;;;;;;;4.20;2.92;;;;;;;;;;4904206;29;20079;-73
2023/08/22 11:28:15;;;;;;;4.10;3.72;;;;;;;;;;4926664;29;20063;-73
2023/08/22 11:30:43;;;;;;;2.83;2.63;;;;;;;;;;4928788;29;20052;-73
2023/08/22 11:33:19;;;;;;;3.35;2.80;;;;;;;;;;4928512;29;20413;-73
2023/08/22 11:35:47;;;;;;;4.72;3.50;;;;;;;;;;4911913;29;20072;-73
2023/08/22 11:38:14;;;;;;;5.45;3.33;;;;;;;;;;4927202;29;20055;-73
2023/08/22 11:40:42;;;;;;;3.53;2.88;;;;;;;;;;4922631;29;20293;-72
2023/08/22 11:43:10;;;;;;;3.58;3.20;;;;;;;;;;4932503;29;20539;-73
2023/08/22 11:45:47;;;;;;;5.35;3.05;;;;;;;;;;4922825;29;20091;-72
2023/08/22 11:48:19;;;;;;;2.85;2.50;;;;;;;;;;4932205;29;20044;-73
2023/08/22 11:50:47;;;;;;;3.78;2.72;;;;;;;;;;4930142;29;20044;-73
2023/08/22 11:53:16;;;;;;;7.63;3.17;;;;;;;;;;4935474;29;20181;-72
2023/08/22 11:55:44;;;;;;;4.38;3.00;;;;;;;;;;4922070;29;20099;-72
2023/08/22 11:58:16;;;;;;;4.32;3.70;;;;;;;;;;4931743;29;20071;-73
2023/08/22 12:00:45;;;;;;;5.35;2.80;;;;;;;;;;4931809;29;20062;-72
2023/08/22 12:03:13;;;;;;;4.80;2.80;;;;;;;;;;4931455;29;20107;-72
2023/08/22 12:05:44;;;;;;;5.88;3.20;;;;;;;;;;4929853;29;20409;-72
2023/08/22 12:08:12;;;;;;;3.17;2.70;;;;;;;;;;4922322;29;20051;-72
2023/08/22 12:10:42;;;;;;;4.80;2.95;;;;;;;;;;4930109;29;20044;-72
2023/08/22 12:13:11;;;;;;;3.10;2.78;;;;;;;;;;4917415;29;20051;-72
2023/08/22 12:15:40;;;;;;;5.50;2.70;;;;;;;;;;4920577;29;20134;-72
2023/08/22 12:18:08;;;;;;;2.80;2.53;;;;;;;;;;4924485;29;20098;-71
2023/08/22 12:20:38;;;;;;;3.38;2.80;;;;;;;;;;4929370;29;20051;-73
2023/08/22 12:23:06;;;;;;;5.30;3.20;;;;;;;;;;4924190;29;20048;-72
2023/08/22 12:25:35;;;;;;;8.98;3.72;;;;;;;;;;4930176;29;20403;-72
2023/08/22 12:28:03;;;;;;;3.63;3.20;;;;;;;;;;4920336;29;20079;-73
2023/08/22 12:30:33;;;;;;;4.82;3.30;;;;;;;;;;4927428;29;20107;-72
2023/08/22 12:33:02;;;;;;;3.70;2.97;;;;;;;;;;4931458;29;20119;-73
2023/08/22 12:35:32;;;;;;;3.58;3.00;;;;;;;;;;4930060;29;20059;-73
2023/08/22 12:38:00;;;;;;;4.97;3.60;;;;;;;;;;4916757;29;20106;-72
2023/08/22 12:40:27;;;;;;;3.15;2.85;;;;;;;;;;4921328;29;20384;-73
2023/08/22 12:42:55;;;;;;;9.52;3.42;;;;;;;;;;4911580;29;20414;-73
2023/08/22 12:45:23;;;;;;;5.47;3.33;;;;;;;;;;4908290;29;20581;-73
2023/08/22 12:47:51;;;;;;;5.80;3.53;;;;;;;;;;4910029;29;20071;-73
2023/08/22 12:50:18;;;;;;;3.88;3.58;;;;;;;;;;4925046;29;20233;-73
2023/08/22 12:52:46;;;;;;;4.63;3.42;;;;;;;;;;4921300;29;20071;-73
2023/08/22 12:55:14;;;;;;;6.10;3.60;;;;;;;;;;4929268;29;20557;-73
2023/08/22 12:57:42;;;;;;;3.70;3.30;;;;;;;;;;4930683;29;20059;-73
2023/08/22 13:00:10;;;;;;;4.65;2.95;;;;;;;;;;4923694;29;20430;-73
2023/08/22 13:02:40;;;;;;;5.75;3.10;;;;;;;;;;4921281;29;20586;-74
2023/08/22 13:05:08;;;;;;;7.55;3.20;;;;;;;;;;4923403;29;20533;-73
2023/08/22 13:07:36;;;;;;;5.35;3.10;;;;;;;;;;4920968;29;20059;-73
2023/08/22 13:10:04;;;;;;;3.30;3.00;;;;;;;;;;4921542;29;20763;-72
2023/08/22 13:12:32;;;;;;;3.35;3.05;;;;;;;;;;4936552;28;20058;-71
2023/08/22 13:15:01;;;;;;;6.22;3.47;;;;;;;;;;4921902;29;20107;-72
2023/08/22 13:17:28;;;;;;;3.63;3.28;;;;;;;;;;4933519;29;20113;-73
2023/08/22 13:19:56;;;;;;;4.05;2.90;;;;;;;;;;4918360;29;20052;-72
2023/08/22 13:22:23;;;;;;;4.75;3.00;;;;;;;;;;4934058;29;20055;-73
2023/08/22 13:24:51;;;;;;;3.42;3.00;;;;;;;;;;4917569;29;20054;-72
2023/08/22 13:27:19;;;;;;;4.30;2.90;;;;;;;;;;4928897;29;20075;-73
2023/08/22 13:29:46;;;;;;;5.68;3.70;;;;;;;;;;4919234;29;20054;-72
2023/08/22 13:32:14;;;;;;;4.13;3.20;;;;;;;;;;4925886;29;20485;-73
2023/08/22 13:34:42;;;;;;;6.45;3.38;;;;;;;;;;4929852;29;20123;-73
2023/08/22 13:37:10;;;;;;;7.30;3.30;;;;;;;;;;4928225;29;20132;-73
2023/08/22 13:39:38;;;;;;;3.35;3.05;;;;;;;;;;4928671;29;20509;-72
2023/08/22 13:42:06;;;;;;;6.00;3.22;;;;;;;;;;4919584;29;20052;-72
2023/08/22 13:44:34;;;;;;;4.68;3.00;;;;;;;;;;4929886;29;20058;-73
2023/08/22 13:47:01;;;;;;;4.75;3.40;;;;;;;;;;4927635;29;20062;-73
2023/08/22 13:49:29;;;;;;;4.68;3.28;;;;;;;;;;4912942;29;20425;-72
2023/08/22 13:51:57;;;;;;;3.72;3.42;;;;;;;;;;4905422;29;20248;-72
2023/08/22 13:54:25;;;;;;;3.60;3.20;;;;;;;;;;4924716;29;20047;-72
2023/08/22 13:56:53;;;;;;;4.32;3.92;;;;;;;;;;4930204;29;20059;-72
2023/08/22 13:59:20;;;;;;;7.57;3.63;;;;;;;;;;4915907;29;20570;-73
2023/08/22 14:01:48;;;;;;;4.05;3.65;;;;;;;;;;4929581;29;20477;-73
2023/08/22 14:04:19;;;;;;;4.65;3.70;;;;;;;;;;4929592;29;20309;-72
2023/08/22 14:06:48;;;;;;;3.63;3.33;;;;;;;;;;4929306;29;20051;-73
2023/08/22 14:09:16;;;;;;;7.32;3.45;;;;;;;;;;4926014;29;20502;-72
2023/08/22 14:11:53;;;;;;;5.65;3.47;;;;;;;;;;4920358;29;20878;-72
2023/08/22 14:14:21;;;;;;;4.15;3.67;;;;;;;;;;4928250;29;20048;-72
2023/08/22 14:16:49;;;;;;;4.72;3.72;;;;;;;;;;4918728;29;20062;-73
2023/08/22 14:19:17;;;;;;;4.00;3.20;;;;;;;;;;4912963;29;20559;-73
2023/08/22 14:21:46;;;;;;;3.72;3.20;;;;;;;;;;4926044;29;20051;-73
2023/08/22 14:24:18;;;;;;;3.85;3.38;;;;;;;;;;4922506;29;20432;-73
2023/08/22 14:26:46;;;;;;;5.82;4.22;;;;;;;;;;4913842;29;20051;-73
2023/08/22 14:29:13;;;;;;;4.32;3.72;;;;;;;;;;4918503;29;20584;-73
2023/08/22 14:31:41;;;;;;;3.67;3.15;;;;;;;;;;4925791;29;20044;-73
2023/08/22 14:34:09;;;;;;;4.55;3.60;;;;;;;;;;4912687;29;20398;-72
2023/08/22 14:36:37;;;;;;;4.13;3.72;;;;;;;;;;4912342;29;20127;-72
2023/08/22 14:39:04;;;;;;;3.47;3.22;;;;;;;;;;4921216;29;20403;-72
2023/08/22 14:41:32;;;;;;;4.80;3.45;;;;;;;;;;4919097;29;20491;-73
2023/08/22 14:44:00;;;;;;;3.92;3.55;;;;;;;;;;4911685;29;20391;-73
2023/08/22 14:46:28;;;;;;;3.60;3.30;;;;;;;;;;4915563;29;20229;-73
2023/08/22 14:48:56;;;;;;;5.53;3.28;;;;;;;;;;4912607;29;20059;-73
2023/08/22 14:51:23;;;;;;;5.78;3.60;;;;;;;;;;4927572;29;20063;-72